Time,TemperatureF,DewpointF,PressureIn,WindDirection,WindDirectionDegrees,WindSpeedMPH,WindSpeedGustMPH,Humidity,HourlyPrecipIn,Conditions,Clouds,dailyrainin,SoftwareType,DateUTC
2013-04-02 00:02:00,31.1,22.5,30.93,NW,311,1.0,7.0,70,0.00,RA,RA,0.00,WeatherDisplay:10.37,2013-04-02 04:02:00,
2013-04-02 00:07:00,31.1,22.4,30.93,NW,305,5.0,8.0,70,0.00,RA,RA,0.00,WeatherDisplay:10.37,2013-04-02 04:07:00,
2013-04-02 00:17:00,31.0,21.3,30.93,NW,312,2.0,8.0,67,0.00,CLR,CLR,0.00,WeatherDisplay:10.37,2013-04-02 04:17:00,
2013-04-02 00:22:00,31.0,21.3,30.93,WNW,287,5.0,10.0,67,0.00,CLR,CLR,0.00,WeatherDisplay:10.37,2013-04-02 04:22:00,
2013-04-02 00:27:00,30.8,20.4,30.93,WNW,298,3.0,7.0,65,0.00,CLR,CLR,0.00,WeatherDisplay:10.37,2013-04-02 04:27:00,
2013-04-02 00:32:00,30.8,20.7,30.94,NNW,336,6.0,10.0,66,0.00,CLR,CLR,0.00,WeatherDisplay:10.37,2013-04-02 04:32:00,
2013-04-02 00:37:00,30.6,20.6,30.93,NNW,340,5.0,12.0,66,0.00,CLR,CLR,0.00,WeatherDisplay:10.37,2013-04-02 04:37:00,
2013-04-02 00:42:00,30.4,20.4,30.94,NW,320,5.0,9.0,66,0.00,CLR,CLR,0.00,WeatherDisplay:10.37,2013-04-02 04:42:00,
2013-04-02 00:47:00,30.4,20.0,30.94,WNW,295,5.0,8.0,65,0.00,CLR,CLR,0.00,WeatherDisplay:10.37,2013-04-02 04:47:00,
2013-04-02 00:52:00,30.3,20.0,30.94,NW,313,6.0,12.0,65,0.00,CLR,CLR,0.00,WeatherDisplay:10.37,2013-04-02 04:52:00,
2013-04-02 00:57:00,30.3,19.9,30.94,NW,309,5.0,10.0,65,0.00,CLR,CLR,0.00,WeatherDisplay:10.37,2013-04-02 04:57:00,
2013-04-02 01:02:00,30.2,19.8,30.94,WNW,301,5.0,10.0,65,0.00,CLR,CLR,0.00,WeatherDisplay:10.37,2013-04-02 05:02:00,
2013-04-02 01:12:00,29.8,20.5,30.95,NW,304,3.0,9.0,68,0.00,CLR,CLR,0.00,WeatherDisplay:10.37,2013-04-02 05:12:00,
2013-04-02 01:22:00,29.5,20.6,30.95,NW,317,3.0,8.0,69,0.00,CLR,CLR,0.00,WeatherDisplay:10.37,2013-04-02 05:22:00,
2013-04-02 01:27:00,29.5,20.6,30.95,NW,311,5.0,7.0,69,0.00,CLR,CLR,0.00,WeatherDisplay:10.37,2013-04-02 05:27:00,
2013-04-02 01:37:00,29.4,20.5,30.95,WNW,298,2.0,8.0,69,0.00,CLR,CLR,0.00,WeatherDisplay:10.37,2013-04-02 05:37:00,
2013-04-02 01:42:00,29.4,20.5,30.94,NW,312,3.0,12.0,69,0.00,CLR,CLR,0.00,WeatherDisplay:10.37,2013-04-02 05:42:00,
2013-04-02 01:47:00,29.5,19.5,30.94,WNW,293,6.0,9.0,66,0.00,CLR,CLR,0.00,WeatherDisplay:10.37,2013-04-02 05:47:00,
2013-04-02 01:52:00,29.6,19.6,30.94,WNW,289,6.0,10.0,66,0.00,CLR,CLR,0.00,WeatherDisplay:10.37,2013-04-02 05:52:00,
2013-04-02 02:02:00,29.7,19.0,30.94,NW,305,2.0,10.0,64,0.00,CLR,CLR,0.00,WeatherDisplay:10.37,2013-04-02 06:02:00,
2013-04-02 02:07:00,29.7,19.0,30.95,NW,304,6.0,10.0,64,0.00,CLR,CLR,0.00,WeatherDisplay:10.37,2013-04-02 06:07:00,
2013-04-02 02:17:00,29.7,18.6,30.95,NW,304,7.0,10.0,63,0.00,CLR,CLR,0.00,WeatherDisplay:10.37,2013-04-02 06:17:00,
2013-04-02 02:22:00,29.7,18.3,30.94,NNW,329,1.0,8.0,62,0.00,CLR,CLR,0.00,WeatherDisplay:10.37,2013-04-02 06:22:00,
2013-04-02 02:27:00,29.7,17.9,30.94,NW,324,6.0,8.0,61,0.00,CLR,CLR,0.00,WeatherDisplay:10.37,2013-04-02 06:27:00,
2013-04-02 02:32:00,29.7,17.9,30.94,NW,308,3.0,7.0,61,0.00,CLR,CLR,0.00,WeatherDisplay:10.37,2013-04-02 06:32:00,
2013-04-02 02:37:00,29.7,18.3,30.94,WNW,293,5.0,7.0,62,0.00,CLR,CLR,0.00,WeatherDisplay:10.37,2013-04-02 06:37:00,
2013-04-02 02:42:00,29.7,17.9,30.94,WNW,298,3.0,8.0,61,0.00,CLR,CLR,0.00,WeatherDisplay:10.37,2013-04-02 06:42:00,
2013-04-02 02:47:00,29.7,17.9,30.94,NW,312,2.0,10.0,61,0.00,CLR,CLR,0.00,WeatherDisplay:10.37,2013-04-02 06:47:00,
2013-04-02 02:52:00,29.7,16.3,30.94,NW,318,3.0,12.0,57,0.00,CLR,CLR,0.00,WeatherDisplay:10.37,2013-04-02 06:52:00,
2013-04-02 02:57:00,29.7,16.7,30.94,WNW,292,6.0,12.0,58,0.00,CLR,CLR,0.00,WeatherDisplay:10.37,2013-04-02 06:57:00,
2013-04-02 03:02:00,29.8,16.0,30.94,WNW,283,6.0,13.0,56,0.00,CLR,CLR,0.00,WeatherDisplay:10.37,2013-04-02 07:02:00,
2013-04-02 03:07:00,29.8,16.4,30.94,WNW,288,3.0,12.0,57,0.00,CLR,CLR,0.00,WeatherDisplay:10.37,2013-04-02 07:07:00,
2013-04-02 03:12:00,29.7,17.9,30.94,West,277,5.0,10.0,61,0.00,CLR,CLR,0.00,WeatherDisplay:10.37,2013-04-02 07:12:00,
2013-04-02 03:17:00,29.5,17.7,30.94,West,281,6.0,9.0,61,0.00,CLR,CLR,0.00,WeatherDisplay:10.37,2013-04-02 07:17:00,
2013-04-02 03:22:00,29.4,17.6,30.94,NW,304,6.0,12.0,61,0.00,CLR,CLR,0.00,WeatherDisplay:10.37,2013-04-02 07:22:00,
2013-04-02 03:27:00,29.4,18.0,30.94,WNW,296,7.0,14.0,62,0.00,CLR,CLR,0.00,WeatherDisplay:10.37,2013-04-02 07:27:00,
2013-04-02 03:32:00,29.2,18.9,30.94,WNW,284,5.0,10.0,65,0.00,CLR,CLR,0.00,WeatherDisplay:10.37,2013-04-02 07:32:00,
2013-04-02 03:42:00,29.2,17.8,30.94,WNW,294,1.0,9.0,62,0.00,CLR,CLR,0.00,WeatherDisplay:10.37,2013-04-02 07:42:00,
2013-04-02 03:47:00,29.3,17.5,30.94,WNW,299,5.0,8.0,61,0.00,CLR,CLR,0.00,WeatherDisplay:10.37,2013-04-02 07:47:00,
2013-04-02 03:52:00,29.4,17.2,30.94,WNW,295,7.0,10.0,60,0.00,CLR,CLR,0.00,WeatherDisplay:10.37,2013-04-02 07:52:00,
2013-04-02 03:57:00,29.4,16.8,30.94,WNW,301,5.0,9.0,59,0.00,CLR,CLR,0.00,WeatherDisplay:10.37,2013-04-02 07:57:00,
2013-04-02 04:02:00,29.4,16.8,30.94,WNW,300,3.0,8.0,59,0.00,CLR,CLR,0.00,WeatherDisplay:10.37,2013-04-02 08:02:00,
2013-04-02 04:07:00,29.4,16.8,30.94,WNW,301,3.0,13.0,59,0.00,CLR,CLR,0.00,WeatherDisplay:10.37,2013-04-02 08:07:00,
2013-04-02 04:12:00,29.3,16.7,30.94,NW,313,5.0,9.0,59,0.00,CLR,CLR,0.00,WeatherDisplay:10.37,2013-04-02 08:12:00,
2013-04-02 04:17:00,29.3,16.3,30.94,NW,309,5.0,10.0,58,0.00,CLR,CLR,0.00,WeatherDisplay:10.37,2013-04-02 08:17:00,
2013-04-02 04:27:00,29.2,16.6,30.94,NW,316,3.0,8.0,59,0.00,CLR,CLR,0.00,WeatherDisplay:10.37,2013-04-02 08:27:00,
2013-04-02 04:32:00,29.2,17.0,30.95,NW,307,5.0,6.0,60,0.00,CLR,CLR,0.00,WeatherDisplay:10.37,2013-04-02 08:32:00,
2013-04-02 04:37:00,29.1,16.5,30.95,WNW,296,3.0,10.0,59,0.00,CLR,CLR,0.00,WeatherDisplay:10.37,2013-04-02 08:37:00,
2013-04-02 04:42:00,29.0,16.4,30.95,WNW,296,1.0,4.0,59,0.00,CLR,CLR,0.00,WeatherDisplay:10.37,2013-04-02 08:42:00,
2013-04-02 04:47:00,28.9,16.4,30.95,NW,304,3.0,7.0,59,0.00,CLR,CLR,0.00,WeatherDisplay:10.37,2013-04-02 08:47:00,
2013-04-02 04:52:00,28.8,16.3,30.95,NW,325,3.0,9.0,59,0.00,CLR,CLR,0.00,WeatherDisplay:10.37,2013-04-02 08:52:00,
2013-04-02 04:57:00,28.7,16.9,30.95,NNW,329,7.0,8.0,61,0.00,CLR,CLR,0.00,WeatherDisplay:10.37,2013-04-02 08:57:00,
2013-04-02 05:02:00,28.7,16.6,30.95,NNW,328,2.0,5.0,60,0.00,CLR,CLR,0.00,WeatherDisplay:10.37,2013-04-02 09:02:00,
2013-04-02 05:07:00,28.6,16.9,30.95,NW,310,5.0,7.0,61,0.00,CLR,CLR,0.00,WeatherDisplay:10.37,2013-04-02 09:07:00,
2013-04-02 05:12:00,28.5,16.7,30.95,WNW,292,1.0,3.0,61,0.00,CLR,CLR,0.00,WeatherDisplay:10.37,2013-04-02 09:12:00,
2013-04-02 05:17:00,28.4,17.0,30.95,WNW,289,1.0,5.0,62,0.00,CLR,CLR,0.00,WeatherDisplay:10.37,2013-04-02 09:17:00,
2013-04-02 05:22:00,28.2,17.6,30.95,WNW,286,1.0,5.0,64,0.00,CLR,CLR,0.00,WeatherDisplay:10.37,2013-04-02 09:22:00,
2013-04-02 05:27:00,28.1,17.1,30.96,WNW,299,2.0,4.0,63,0.00,CLR,CLR,0.00,WeatherDisplay:10.37,2013-04-02 09:27:00,
2013-04-02 05:37:00,27.8,17.2,30.96,West,275,0.0,4.0,64,0.00,CLR,CLR,0.00,WeatherDisplay:10.37,2013-04-02 09:37:00,
2013-04-02 05:42:00,27.5,17.3,30.96,West,278,0.0,4.0,65,0.00,CLR,CLR,0.00,WeatherDisplay:10.37,2013-04-02 09:42:00,
2013-04-02 05:47:00,27.3,17.1,30.96,WNW,288,1.0,4.0,65,0.00,CLR,CLR,0.00,WeatherDisplay:10.37,2013-04-02 09:47:00,
2013-04-02 05:52:00,27.3,17.4,30.96,WNW,288,1.0,4.0,66,0.00,CLR,CLR,0.00,WeatherDisplay:10.37,2013-04-02 09:52:00,
2013-04-02 05:57:00,27.4,17.9,30.96,WNW,288,0.0,2.0,67,0.00,CLR,CLR,0.00,WeatherDisplay:10.37,2013-04-02 09:57:00,
2013-04-02 06:02:00,27.5,18.3,30.96,WNW,288,0.0,2.0,68,0.00,CLR,CLR,0.00,WeatherDisplay:10.37,2013-04-02 10:02:00,
2013-04-02 06:07:00,27.6,18.1,30.96,West,266,1.0,5.0,67,0.00,CLR,CLR,0.00,WeatherDisplay:10.37,2013-04-02 10:07:00,
2013-04-02 06:17:00,27.8,17.9,30.97,West,261,0.0,2.0,66,0.00,CLR,CLR,0.00,WeatherDisplay:10.37,2013-04-02 10:17:00,
2013-04-02 06:22:00,27.7,17.8,30.97,WNW,292,2.0,6.0,66,0.00,CLR,CLR,0.00,WeatherDisplay:10.37,2013-04-02 10:22:00,
2013-04-02 06:32:00,27.3,17.8,30.97,West,266,1.0,4.0,67,0.00,CLR,CLR,0.00,WeatherDisplay:10.37,2013-04-02 10:32:00,
2013-04-02 06:37:00,27.1,17.6,30.97,West,262,5.0,6.0,67,0.00,CLR,CLR,0.00,WeatherDisplay:10.37,2013-04-02 10:37:00,
2013-04-02 06:47:00,27.2,17.7,30.97,West,260,2.0,4.0,67,0.00,CLR,CLR,0.00,WeatherDisplay:10.37,2013-04-02 10:47:00,
2013-04-02 06:52:00,27.2,17.7,30.97,West,272,1.0,5.0,67,0.00,CLR,CLR,0.00,WeatherDisplay:10.37,2013-04-02 10:52:00,
2013-04-02 06:57:00,27.1,17.6,30.98,West,263,3.0,5.0,67,0.00,CLR,CLR,0.00,WeatherDisplay:10.37,2013-04-02 10:57:00,
2013-04-02 07:02:00,27.0,17.5,30.98,WSW,253,2.0,5.0,67,0.00,CLR,CLR,0.00,WeatherDisplay:10.37,2013-04-02 11:02:00,
2013-04-02 07:07:00,26.8,18.0,30.98,WSW,254,1.0,4.0,69,0.00,CLR,CLR,0.00,WeatherDisplay:10.37,2013-04-02 11:07:00,
2013-04-02 07:12:00,26.7,18.2,30.98,WSW,252,2.0,4.0,70,0.00,CLR,CLR,0.00,WeatherDisplay:10.37,2013-04-02 11:12:00,
2013-04-02 07:17:00,26.6,20.1,30.99,WSW,252,1.0,3.0,76,0.00,CLR,CLR,0.00,WeatherDisplay:10.37,2013-04-02 11:17:00,
2013-04-02 07:22:00,26.5,18.7,30.99,WSW,252,0.0,2.0,72,0.00,CLR,CLR,0.00,WeatherDisplay:10.37,2013-04-02 11:22:00,
2013-04-02 07:27:00,26.4,18.9,30.99,WSW,252,2.0,3.0,73,0.00,CLR,CLR,0.00,WeatherDisplay:10.37,2013-04-02 11:27:00,
2013-04-02 07:32:00,26.5,19.3,30.99,WSW,251,2.0,3.0,74,0.00,CLR,CLR,0.00,WeatherDisplay:10.37,2013-04-02 11:32:00,
2013-04-02 07:37:00,26.7,19.2,31.00,WSW,238,2.0,4.0,73,0.00,CLR,CLR,0.00,WeatherDisplay:10.37,2013-04-02 11:37:00,
2013-04-02 07:42:00,27.0,19.5,31.00,SW,226,2.0,3.0,73,0.00,CLR,CLR,0.00,WeatherDisplay:10.37,2013-04-02 11:42:00,
2013-04-02 07:52:00,27.6,19.7,31.00,SW,228,2.0,4.0,72,0.00,CLR,CLR,0.00,WeatherDisplay:10.37,2013-04-02 11:52:00,
2013-04-02 07:57:00,27.8,19.3,31.00,SW,232,2.0,4.0,70,0.00,CLR,CLR,0.00,WeatherDisplay:10.37,2013-04-02 11:57:00,
2013-04-02 08:02:00,27.9,19.7,31.00,SW,232,0.0,4.0,71,0.00,CLR,CLR,0.00,WeatherDisplay:10.37,2013-04-02 12:02:00,
2013-04-02 08:07:00,28.2,20.0,31.00,SW,232,3.0,5.0,71,0.00,CLR,CLR,0.00,WeatherDisplay:10.37,2013-04-02 12:07:00,
2013-04-02 08:12:00,28.5,19.6,31.00,SW,231,2.0,5.0,69,0.00,CLR,CLR,0.00,WeatherDisplay:10.37,2013-04-02 12:12:00,
2013-04-02 08:17:00,29.0,20.1,31.01,SW,231,3.0,4.0,69,0.00,CLR,CLR,0.00,WeatherDisplay:10.37,2013-04-02 12:17:00,
2013-04-02 08:22:00,29.4,19.8,31.01,WSW,247,5.0,8.0,67,0.00,CLR,CLR,0.00,WeatherDisplay:10.37,2013-04-02 12:22:00,
2013-04-02 08:32:00,29.8,19.8,31.01,West,272,5.0,9.0,66,0.00,CLR,CLR,0.00,WeatherDisplay:10.37,2013-04-02 12:32:00,
2013-04-02 08:37:00,29.8,19.8,31.01,West,277,5.0,9.0,66,0.00,CLR,CLR,0.00,WeatherDisplay:10.37,2013-04-02 12:37:00,
2013-04-02 08:47:00,29.9,19.9,31.01,West,278,8.0,13.0,66,0.00,CLR,CLR,0.00,WeatherDisplay:10.37,2013-04-02 12:47:00,
2013-04-02 08:52:00,30.0,20.4,31.01,WNW,284,3.0,9.0,67,0.00,CLR,CLR,0.00,WeatherDisplay:10.37,2013-04-02 12:52:00,
2013-04-02 08:57:00,30.3,20.7,31.01,WNW,286,8.0,12.0,67,0.00,CLR,CLR,0.00,WeatherDisplay:10.37,2013-04-02 12:57:00,
2013-04-02 09:02:00,30.7,20.7,31.01,WNW,288,7.0,14.0,66,0.00,CLR,CLR,0.00,WeatherDisplay:10.37,2013-04-02 13:02:00,
2013-04-02 09:07:00,30.8,20.4,31.01,WNW,290,7.0,14.0,65,0.00,CLR,CLR,0.00,WeatherDisplay:10.37,2013-04-02 13:07:00,
2013-04-02 09:12:00,30.8,20.0,31.01,WNW,301,3.0,14.0,64,0.00,CLR,CLR,0.00,WeatherDisplay:10.37,2013-04-02 13:12:00,
2013-04-02 09:17:00,31.1,20.7,31.02,WNW,289,7.0,12.0,65,0.00,CLR,CLR,0.00,WeatherDisplay:10.37,2013-04-02 13:17:00,
2013-04-02 09:27:00,31.4,20.3,31.01,West,276,6.0,15.0,63,0.00,CLR,CLR,0.00,WeatherDisplay:10.37,2013-04-02 13:27:00,
2013-04-02 09:32:00,31.4,20.6,31.01,West,281,6.0,13.0,64,0.00,CLR,CLR,0.00,WeatherDisplay:10.37,2013-04-02 13:32:00,
2013-04-02 09:37:00,31.2,20.1,31.02,West,278,9.0,16.0,63,0.00,CLR,CLR,0.00,WeatherDisplay:10.37,2013-04-02 13:37:00,
2013-04-02 09:42:00,31.0,19.9,31.02,West,268,7.0,12.0,63,0.00,CLR,CLR,0.00,WeatherDisplay:10.37,2013-04-02 13:42:00,
2013-04-02 09:47:00,31.1,19.2,31.02,West,269,6.0,15.0,61,0.00,CLR,CLR,0.00,WeatherDisplay:10.37,2013-04-02 13:47:00,
2013-04-02 09:52:00,31.4,19.1,31.02,West,277,9.0,17.0,60,0.00,CLR,CLR,0.00,WeatherDisplay:10.37,2013-04-02 13:52:00,
2013-04-02 09:57:00,31.6,19.7,31.02,West,279,10.0,16.0,61,0.00,CLR,CLR,0.00,WeatherDisplay:10.37,2013-04-02 13:57:00,
2013-04-02 10:02:00,31.4,19.1,31.02,WNW,285,8.0,18.0,60,0.00,CLR,CLR,0.00,WeatherDisplay:10.37,2013-04-02 14:02:00,
2013-04-02 10:07:00,31.3,19.0,31.03,WNW,300,10.0,15.0,60,0.00,CLR,CLR,0.00,WeatherDisplay:10.37,2013-04-02 14:07:00,
2013-04-02 10:12:00,31.1,18.4,31.02,WNW,296,8.0,15.0,59,0.00,CLR,CLR,0.00,WeatherDisplay:10.37,2013-04-02 14:12:00,
2013-04-02 10:17:00,31.2,19.7,31.02,West,269,7.0,17.0,62,0.00,CLR,CLR,0.00,WeatherDisplay:10.37,2013-04-02 14:17:00,
2013-04-02 10:22:00,31.4,19.9,31.02,West,260,8.0,17.0,62,0.00,CLR,CLR,0.00,WeatherDisplay:10.37,2013-04-02 14:22:00,
2013-04-02 10:32:00,31.9,20.3,31.03,West,277,6.0,15.0,62,0.00,CLR,CLR,0.00,WeatherDisplay:10.37,2013-04-02 14:32:00,
2013-04-02 10:37:00,32.0,20.1,31.03,West,280,8.0,14.0,61,0.00,CLR,CLR,0.00,WeatherDisplay:10.37,2013-04-02 14:37:00,
2013-04-02 10:42:00,31.8,20.3,31.03,WNW,292,6.0,13.0,62,0.00,CLR,CLR,0.00,WeatherDisplay:10.37,2013-04-02 14:42:00,
2013-04-02 10:47:00,31.6,20.1,31.03,WNW,292,9.0,13.0,62,0.00,CLR,CLR,0.00,WeatherDisplay:10.37,2013-04-02 14:47:00,
2013-04-02 10:52:00,31.5,20.4,31.03,NW,305,1.0,10.0,63,0.00,CLR,CLR,0.00,WeatherDisplay:10.37,2013-04-02 14:52:00,
2013-04-02 10:57:00,32.4,21.2,31.03,West,279,9.0,17.0,63,0.00,CLR,CLR,0.00,WeatherDisplay:10.37,2013-04-02 14:57:00,
2013-04-02 11:02:00,32.8,20.4,31.03,WSW,252,14.0,20.0,60,0.00,CLR,CLR,0.00,WeatherDisplay:10.37,2013-04-02 15:02:00,
2013-04-02 11:07:00,32.8,20.9,31.04,West,260,12.0,20.0,61,0.00,CLR,CLR,0.00,WeatherDisplay:10.37,2013-04-02 15:07:00,
2013-04-02 11:12:00,33.1,21.1,31.03,West,268,5.0,18.0,61,0.00,CLR,CLR,0.00,WeatherDisplay:10.37,2013-04-02 15:12:00,
2013-04-02 11:17:00,33.2,20.0,31.04,WNW,284,10.0,16.0,58,0.00,CLR,CLR,0.00,WeatherDisplay:10.37,2013-04-02 15:17:00,
2013-04-02 11:22:00,32.5,20.1,31.04,WNW,282,9.0,14.0,60,0.00,CLR,CLR,0.00,WeatherDisplay:10.37,2013-04-02 15:22:00,
2013-04-02 11:27:00,33.2,21.2,31.05,WNW,284,8.0,17.0,61,0.00,CLR,CLR,0.00,WeatherDisplay:10.37,2013-04-02 15:27:00,
2013-04-02 11:32:00,32.8,19.2,31.04,WNW,286,7.0,14.0,57,0.00,CLR,CLR,0.00,WeatherDisplay:10.37,2013-04-02 15:32:00,
2013-04-02 11:37:00,33.4,20.6,31.04,West,266,13.0,16.0,59,0.00,CLR,CLR,0.00,WeatherDisplay:10.37,2013-04-02 15:37:00,
2013-04-02 11:42:00,33.4,20.2,31.04,WSW,252,12.0,20.0,58,0.00,CLR,CLR,0.00,WeatherDisplay:10.37,2013-04-02 15:42:00,
2013-04-02 11:47:00,33.7,20.5,31.05,West,261,8.0,20.0,58,0.00,CLR,CLR,0.00,WeatherDisplay:10.37,2013-04-02 15:47:00,
2013-04-02 11:57:00,33.1,19.5,31.05,West,271,7.0,18.0,57,0.00,CLR,CLR,0.00,WeatherDisplay:10.37,2013-04-02 15:57:00,
2013-04-02 12:02:00,33.8,19.7,31.05,West,260,7.0,15.0,56,0.00,CLR,CLR,0.00,WeatherDisplay:10.37,2013-04-02 16:02:00,
2013-04-02 12:07:00,33.3,17.1,31.05,West,280,10.0,17.0,51,0.00,CLR,CLR,0.00,WeatherDisplay:10.37,2013-04-02 16:07:00,
2013-04-02 12:12:00,32.6,16.9,31.05,West,281,9.0,17.0,52,0.00,CLR,CLR,0.00,WeatherDisplay:10.37,2013-04-02 16:12:00,
2013-04-02 12:17:00,32.9,18.0,31.05,West,264,10.0,22.0,54,0.00,CLR,CLR,0.00,WeatherDisplay:10.37,2013-04-02 16:17:00,
2013-04-02 12:32:00,34.1,17.8,31.05,West,266,7.0,16.0,51,0.00,CLR,CLR,0.00,WeatherDisplay:10.37,2013-04-02 16:32:00,
2013-04-02 12:37:00,34.2,18.8,31.05,West,267,8.0,12.0,53,0.00,CLR,CLR,0.00,WeatherDisplay:10.37,2013-04-02 16:37:00,
2013-04-02 12:42:00,34.6,16.9,31.05,West,264,9.0,20.0,48,0.00,CLR,CLR,0.00,WeatherDisplay:10.37,2013-04-02 16:42:00,
2013-04-02 12:47:00,35.1,17.8,31.05,West,270,8.0,12.0,49,0.00,CLR,CLR,0.00,WeatherDisplay:10.37,2013-04-02 16:47:00,
2013-04-02 12:52:00,35.0,16.8,31.05,West,266,9.0,16.0,47,0.00,CLR,CLR,0.00,WeatherDisplay:10.37,2013-04-02 16:52:00,
2013-04-02 12:57:00,34.4,15.7,31.04,West,279,9.0,18.0,46,0.00,CLR,CLR,0.00,WeatherDisplay:10.37,2013-04-02 16:57:00,
2013-04-02 13:02:00,34.2,16.5,31.04,West,273,8.0,18.0,48,0.00,CLR,CLR,0.00,WeatherDisplay:10.37,2013-04-02 17:02:00,
2013-04-02 13:12:00,34.6,17.8,31.05,West,265,7.0,15.0,50,0.00,CLR,CLR,0.00,WeatherDisplay:10.37,2013-04-02 17:12:00,
2013-04-02 13:17:00,34.7,16.5,31.04,West,265,9.0,20.0,47,0.00,CLR,CLR,0.00,WeatherDisplay:10.37,2013-04-02 17:17:00,
2013-04-02 13:22:00,35.1,16.9,31.04,WSW,253,7.0,16.0,47,0.00,CLR,CLR,0.00,WeatherDisplay:10.37,2013-04-02 17:22:00,
2013-04-02 13:27:00,35.6,16.8,31.04,WSW,258,7.0,14.0,46,0.00,CLR,CLR,0.00,WeatherDisplay:10.37,2013-04-02 17:27:00,
2013-04-02 13:32:00,35.2,16.9,31.04,West,266,9.0,15.0,47,0.00,CLR,CLR,0.00,WeatherDisplay:10.37,2013-04-02 17:32:00,
2013-04-02 13:42:00,35.0,16.3,31.04,WNW,286,8.0,14.0,46,0.00,CLR,CLR,0.00,WeatherDisplay:10.37,2013-04-02 17:42:00,
2013-04-02 13:47:00,36.1,17.3,31.04,West,263,10.0,13.0,46,0.00,CLR,CLR,0.00,WeatherDisplay:10.37,2013-04-02 17:47:00,
2013-04-02 13:52:00,36.5,16.6,31.04,West,259,9.0,16.0,44,0.00,CLR,CLR,0.00,WeatherDisplay:10.37,2013-04-02 17:52:00,
2013-04-02 13:57:00,36.3,15.9,31.04,West,272,8.0,14.0,43,0.00,CLR,CLR,0.00,WeatherDisplay:10.37,2013-04-02 17:57:00,
2013-04-02 14:02:00,36.7,18.8,31.04,WSW,258,10.0,17.0,48,0.00,CLR,CLR,0.00,WeatherDisplay:10.37,2013-04-02 18:02:00,
2013-04-02 14:12:00,36.3,16.4,31.04,West,276,12.0,17.0,44,0.00,CLR,CLR,0.00,WeatherDisplay:10.37,2013-04-02 18:12:00,
2013-04-02 14:17:00,36.5,16.1,31.04,West,261,14.0,20.0,43,0.00,CLR,CLR,0.00,WeatherDisplay:10.37,2013-04-02 18:17:00,
2013-04-02 14:22:00,36.4,16.5,31.04,WSW,246,13.0,20.0,44,0.00,CLR,CLR,0.00,WeatherDisplay:10.37,2013-04-02 18:22:00,
2013-04-02 14:32:00,35.9,15.0,31.04,WNW,290,2.0,12.0,42,0.00,CLR,CLR,0.00,WeatherDisplay:10.37,2013-04-02 18:32:00,
2013-04-02 14:37:00,36.8,16.4,31.04,West,266,12.0,17.0,43,0.00,CLR,CLR,0.00,WeatherDisplay:10.37,2013-04-02 18:37:00,
2013-04-02 14:47:00,37.1,16.6,31.04,West,259,9.0,20.0,43,0.00,CLR,CLR,0.00,WeatherDisplay:10.37,2013-04-02 18:47:00,
2013-04-02 14:52:00,37.1,16.1,31.04,WSW,258,7.0,13.0,42,0.00,CLR,CLR,0.00,WeatherDisplay:10.37,2013-04-02 18:52:00,
2013-04-02 15:02:00,37.2,15.6,31.04,WNW,283,9.0,15.0,41,0.00,CLR,CLR,0.00,WeatherDisplay:10.37,2013-04-02 19:02:00,
2013-04-02 15:07:00,36.5,15.5,31.04,WNW,292,8.0,14.0,42,0.00,CLR,CLR,0.00,WeatherDisplay:10.37,2013-04-02 19:07:00,
2013-04-02 15:12:00,36.6,14.5,31.04,WNW,291,10.0,17.0,40,0.00,CLR,CLR,0.00,WeatherDisplay:10.37,2013-04-02 19:12:00,
2013-04-02 15:17:00,36.7,17.3,31.04,West,276,12.0,17.0,45,0.00,CLR,CLR,0.00,WeatherDisplay:10.37,2013-04-02 19:17:00,
2013-04-02 15:22:00,36.9,17.5,31.03,West,265,8.0,12.0,45,0.00,CLR,CLR,0.00,WeatherDisplay:10.37,2013-04-02 19:22:00,
2013-04-02 15:27:00,37.9,18.9,31.03,West,259,10.0,15.0,46,0.00,CLR,CLR,0.00,WeatherDisplay:10.37,2013-04-02 19:27:00,
2013-04-02 15:32:00,37.7,16.7,31.03,WSW,250,9.0,18.0,42,0.00,CLR,CLR,0.00,WeatherDisplay:10.37,2013-04-02 19:32:00,
2013-04-02 15:37:00,37.7,17.7,31.03,WSW,253,9.0,17.0,44,0.00,CLR,CLR,0.00,WeatherDisplay:10.37,2013-04-02 19:37:00,
2013-04-02 15:42:00,37.4,15.8,31.03,WSW,256,10.0,21.0,41,0.00,CLR,CLR,0.00,WeatherDisplay:10.37,2013-04-02 19:42:00,
2013-04-02 15:47:00,36.8,16.4,31.03,WSW,252,7.0,17.0,43,0.00,CLR,CLR,0.00,WeatherDisplay:10.37,2013-04-02 19:47:00,
2013-04-02 15:57:00,37.2,18.8,31.03,West,261,13.0,17.0,47,0.00,CLR,CLR,0.00,WeatherDisplay:10.37,2013-04-02 19:57:00,
2013-04-02 16:02:00,37.5,18.0,31.03,WSW,249,8.0,13.0,45,0.00,CLR,CLR,0.00,WeatherDisplay:10.37,2013-04-02 20:02:00,
2013-04-02 16:07:00,37.4,17.4,31.03,West,262,9.0,18.0,44,0.00,CLR,CLR,0.00,WeatherDisplay:10.37,2013-04-02 20:07:00,
2013-04-02 16:17:00,38.2,18.7,31.03,West,264,10.0,20.0,45,0.00,CLR,CLR,0.00,WeatherDisplay:10.37,2013-04-02 20:17:00,
2013-04-02 16:22:00,37.8,17.3,31.03,WSW,254,13.0,22.0,43,0.00,CLR,CLR,0.00,WeatherDisplay:10.37,2013-04-02 20:22:00,
2013-04-02 16:32:00,37.6,16.5,31.03,West,274,9.0,20.0,42,0.00,CLR,CLR,0.00,WeatherDisplay:10.37,2013-04-02 20:32:00,
2013-04-02 16:37:00,37.7,18.3,31.03,West,262,13.0,18.0,45,0.00,CLR,CLR,0.00,WeatherDisplay:10.37,2013-04-02 20:37:00,
2013-04-02 16:42:00,37.8,17.8,31.03,WSW,254,7.0,14.0,44,0.00,CLR,CLR,0.00,WeatherDisplay:10.37,2013-04-02 20:42:00,
2013-04-02 16:47:00,38.3,18.2,31.03,WSW,251,9.0,13.0,44,0.00,CLR,CLR,0.00,WeatherDisplay:10.37,2013-04-02 20:47:00,
2013-04-02 17:02:00,37.9,17.4,31.03,WSW,247,12.0,16.0,43,0.00,CLR,CLR,0.00,WeatherDisplay:10.37,2013-04-02 21:02:00,
2013-04-02 17:07:00,37.7,16.6,31.03,WSW,242,13.0,22.0,42,0.00,CLR,CLR,0.00,WeatherDisplay:10.37,2013-04-02 21:07:00,
2013-04-02 17:12:00,37.4,16.9,31.03,WSW,256,10.0,16.0,43,0.00,CLR,CLR,0.00,WeatherDisplay:10.37,2013-04-02 21:12:00,
2013-04-02 17:17:00,37.1,16.1,31.03,West,266,7.0,14.0,42,0.00,CLR,CLR,0.00,WeatherDisplay:10.37,2013-04-02 21:17:00,
2013-04-02 17:27:00,37.8,17.3,31.03,WSW,258,10.0,20.0,43,0.00,CLR,CLR,0.00,WeatherDisplay:10.37,2013-04-02 21:27:00,
2013-04-02 17:32:00,38.5,18.0,31.03,WSW,249,10.0,18.0,43,0.00,CLR,CLR,0.00,WeatherDisplay:10.37,2013-04-02 21:32:00,
2013-04-02 17:47:00,37.8,16.2,31.03,West,262,10.0,20.0,41,0.00,CLR,CLR,0.00,WeatherDisplay:10.37,2013-04-02 21:47:00,
2013-04-02 17:52:00,37.7,15.5,31.03,West,265,12.0,24.0,40,0.00,CLR,CLR,0.00,WeatherDisplay:10.37,2013-04-02 21:52:00,
2013-04-02 18:02:00,37.4,16.4,31.03,West,265,10.0,14.0,42,0.00,CLR,CLR,0.00,WeatherDisplay:10.37,2013-04-02 22:02:00,
2013-04-02 18:07:00,37.5,16.5,31.03,WSW,256,9.0,17.0,42,0.00,CLR,CLR,0.00,WeatherDisplay:10.37,2013-04-02 22:07:00,
2013-04-02 18:12:00,37.4,16.9,31.03,WSW,258,5.0,16.0,43,0.00,CLR,CLR,0.00,WeatherDisplay:10.37,2013-04-02 22:12:00,
2013-04-02 18:22:00,37.8,16.7,31.03,West,273,5.0,14.0,42,0.00,CLR,CLR,0.00,WeatherDisplay:10.37,2013-04-02 22:22:00,
2013-04-02 18:27:00,37.7,16.1,31.03,West,270,6.0,14.0,41,0.00,CLR,CLR,0.00,WeatherDisplay:10.37,2013-04-02 22:27:00,
2013-04-02 18:32:00,37.6,16.0,31.03,West,271,5.0,13.0,41,0.00,CLR,CLR,0.00,WeatherDisplay:10.37,2013-04-02 22:32:00,
2013-04-02 18:37:00,37.7,15.5,31.03,West,281,7.0,23.0,40,0.00,CLR,CLR,0.00,WeatherDisplay:10.37,2013-04-02 22:37:00,
2013-04-02 18:47:00,37.8,16.2,31.04,West,273,6.0,18.0,41,0.00,CLR,CLR,0.00,WeatherDisplay:10.37,2013-04-02 22:47:00,
2013-04-02 18:52:00,37.8,15.6,31.03,West,278,8.0,14.0,40,0.00,CLR,CLR,0.00,WeatherDisplay:10.37,2013-04-02 22:52:00,
2013-04-02 18:57:00,37.7,16.1,31.03,West,272,6.0,14.0,41,0.00,CLR,CLR,0.00,WeatherDisplay:10.37,2013-04-02 22:57:00,
2013-04-02 19:07:00,37.4,16.4,31.04,West,269,8.0,15.0,42,0.00,CLR,CLR,0.00,WeatherDisplay:10.37,2013-04-02 23:07:00,
2013-04-02 19:17:00,37.1,16.6,31.04,West,272,9.0,13.0,43,0.00,CLR,CLR,0.00,WeatherDisplay:10.37,2013-04-02 23:17:00,
2013-04-02 19:22:00,36.8,16.9,31.04,West,269,5.0,10.0,44,0.00,CLR,CLR,0.00,WeatherDisplay:10.37,2013-04-02 23:22:00,
2013-04-02 19:27:00,36.6,17.2,31.04,West,264,6.0,9.0,45,0.00,CLR,CLR,0.00,WeatherDisplay:10.37,2013-04-02 23:27:00,
2013-04-02 19:42:00,35.8,17.0,31.04,WNW,283,2.0,5.0,46,0.00,CLR,CLR,0.00,WeatherDisplay:10.37,2013-04-02 23:42:00,
2013-04-02 19:47:00,35.5,16.2,31.04,West,277,2.0,6.0,45,0.00,CLR,CLR,0.00,WeatherDisplay:10.37,2013-04-02 23:47:00,
2013-04-02 20:02:00,34.9,17.6,31.04,West,280,2.0,5.0,49,0.00,CLR,CLR,0.00,WeatherDisplay:10.37,2013-04-03 00:02:00,
2013-04-02 20:07:00,34.6,17.4,31.04,West,270,1.0,8.0,49,0.00,CLR,CLR,0.00,WeatherDisplay:10.37,2013-04-03 00:07:00,
2013-04-02 20:12:00,34.3,17.1,31.04,West,268,1.0,4.0,49,0.00,CLR,CLR,0.00,WeatherDisplay:10.37,2013-04-03 00:12:00,
2013-04-02 20:17:00,34.1,17.4,31.04,West,269,0.0,2.0,50,0.00,CLR,CLR,0.00,WeatherDisplay:10.37,2013-04-03 00:17:00,
2013-04-02 20:27:00,33.5,18.1,31.04,WSW,243,0.0,0.0,53,0.00,CLR,CLR,0.00,WeatherDisplay:10.37,2013-04-03 00:27:00,
2013-04-02 20:32:00,32.8,19.2,31.04,WSW,243,0.0,0.0,57,0.00,CLR,CLR,0.00,WeatherDisplay:10.37,2013-04-03 00:32:00,
2013-04-02 20:42:00,31.3,20.2,31.04,WSW,243,0.0,0.0,63,0.00,CLR,CLR,0.00,WeatherDisplay:10.37,2013-04-03 00:42:00,
2013-04-02 20:47:00,30.8,20.4,31.04,WSW,243,0.0,0.0,65,0.00,CLR,CLR,0.00,WeatherDisplay:10.37,2013-04-03 00:47:00,
2013-04-02 20:57:00,29.9,20.6,31.04,WSW,243,0.0,0.0,68,0.00,CLR,CLR,0.00,WeatherDisplay:10.37,2013-04-03 00:57:00,
2013-04-02 21:07:00,29.0,21.4,31.04,WSW,243,0.0,0.0,73,0.00,CLR,CLR,0.00,WeatherDisplay:10.37,2013-04-03 01:07:00,
2013-04-02 21:12:00,28.5,21.3,31.05,WSW,243,0.0,0.0,74,0.00,CLR,CLR,0.00,WeatherDisplay:10.37,2013-04-03 01:12:00,
2013-04-02 21:17:00,28.0,21.1,31.04,WSW,243,0.0,0.0,75,0.00,CLR,CLR,0.00,WeatherDisplay:10.37,2013-04-03 01:17:00,
2013-04-02 21:22:00,27.5,21.3,31.05,WSW,243,0.0,0.0,77,0.00,CLR,CLR,0.00,WeatherDisplay:10.37,2013-04-03 01:22:00,
2013-04-02 21:27:00,27.1,21.2,31.05,WSW,243,0.0,0.0,78,0.00,CLR,CLR,0.00,WeatherDisplay:10.37,2013-04-03 01:27:00,
2013-04-02 21:32:00,26.7,21.1,31.05,WSW,243,0.0,0.0,79,0.00,CLR,CLR,0.00,WeatherDisplay:10.37,2013-04-03 01:32:00,
2013-04-02 21:37:00,26.5,21.2,31.05,WSW,243,0.0,0.0,80,0.00,CLR,CLR,0.00,WeatherDisplay:10.37,2013-04-03 01:37:00,
2013-04-02 21:47:00,26.2,21.7,31.05,WSW,243,0.0,0.0,83,0.00,CLR,CLR,0.00,WeatherDisplay:10.37,2013-04-03 01:47:00,
2013-04-02 21:52:00,26.2,22.0,31.05,WSW,243,0.0,0.0,84,0.00,CLR,CLR,0.00,WeatherDisplay:10.37,2013-04-03 01:52:00,
2013-04-02 21:57:00,26.0,22.1,31.05,WSW,243,0.0,0.0,85,0.00,CLR,CLR,0.00,WeatherDisplay:10.37,2013-04-03 01:57:00,
2013-04-02 22:02:00,25.8,21.9,31.05,WSW,243,0.0,0.0,85,0.00,CLR,CLR,0.00,WeatherDisplay:10.37,2013-04-03 02:02:00,
2013-04-02 22:07:00,25.7,21.8,31.05,WSW,243,0.0,0.0,85,0.00,CLR,CLR,0.00,WeatherDisplay:10.37,2013-04-03 02:07:00,
2013-04-02 22:17:00,25.4,21.5,31.06,WSW,243,0.0,0.0,85,0.00,CLR,CLR,0.00,WeatherDisplay:10.37,2013-04-03 02:17:00,
2013-04-02 22:22:00,25.3,21.4,31.05,WSW,243,0.0,0.0,85,0.00,CLR,CLR,0.00,WeatherDisplay:10.37,2013-04-03 02:22:00,
2013-04-02 22:32:00,25.4,21.8,31.06,WSW,243,0.0,0.0,86,0.00,CLR,CLR,0.00,WeatherDisplay:10.37,2013-04-03 02:32:00,
2013-04-02 22:37:00,25.3,21.4,31.06,WSW,243,0.0,0.0,85,0.00,CLR,CLR,0.00,WeatherDisplay:10.37,2013-04-03 02:37:00,
2013-04-02 22:42:00,25.2,21.6,31.06,WSW,243,0.0,0.0,86,0.00,CLR,CLR,0.00,WeatherDisplay:10.37,2013-04-03 02:42:00,
2013-04-02 22:47:00,25.1,21.2,31.06,WSW,243,0.0,0.0,85,0.00,CLR,CLR,0.00,WeatherDisplay:10.37,2013-04-03 02:47:00,
2013-04-02 22:52:00,24.9,21.3,31.06,WSW,243,0.0,0.0,86,0.00,CLR,CLR,0.00,WeatherDisplay:10.37,2013-04-03 02:52:00,
2013-04-02 22:57:00,24.6,20.7,31.06,WSW,243,0.0,0.0,85,0.00,CLR,CLR,0.00,WeatherDisplay:10.37,2013-04-03 02:57:00,
2013-04-02 23:07:00,24.3,20.7,31.07,WSW,243,0.0,0.0,86,0.00,CLR,CLR,0.00,WeatherDisplay:10.37,2013-04-03 03:07:00,
2013-04-02 23:12:00,24.5,21.1,31.07,WSW,243,0.0,0.0,87,0.00,CLR,CLR,0.00,WeatherDisplay:10.37,2013-04-03 03:12:00,
2013-04-02 23:22:00,24.6,21.6,31.07,WSW,243,0.0,0.0,88,0.00,CLR,CLR,0.00,WeatherDisplay:10.37,2013-04-03 03:22:00,
2013-04-02 23:27:00,25.1,22.3,31.07,WSW,243,0.0,2.0,89,0.00,CLR,CLR,0.00,WeatherDisplay:10.37,2013-04-03 03:27:00,
2013-04-02 23:32:00,25.6,22.3,31.07,WSW,243,0.0,0.0,87,0.00,CLR,CLR,0.00,WeatherDisplay:10.37,2013-04-03 03:32:00,
2013-04-02 23:37:00,26.2,22.3,31.07,WSW,243,0.0,0.0,85,0.00,CLR,CLR,0.00,WeatherDisplay:10.37,2013-04-03 03:37:00,
2013-04-02 23:42:00,26.3,22.4,31.07,WSW,243,0.0,0.0,85,0.00,CLR,CLR,0.00,WeatherDisplay:10.37,2013-04-03 03:42:00,
2013-04-02 23:47:00,26.4,22.2,31.07,WSW,243,0.0,0.0,84,0.00,CLR,CLR,0.00,WeatherDisplay:10.37,2013-04-03 03:47:00,
2013-04-02 23:57:00,26.5,22.3,31.07,WSW,243,0.0,1.0,84,0.00,CLR,CLR,0.00,WeatherDisplay:10.37,2013-04-03 03:57:00,